Coral Favia — PHKM — position and weather

sailwx.info

Track history (hours):
 
Tides and Currents Weather Stations Pressure Air Temp Water Temp Dewpoint Dewpoint Depression Visibility Wind Speed Wind Dir Waves Ship Positions

Coral Favia

Last reported at 2015-Mar-02 10:15 UTC. Time now 2015-Mar-06 16:04 UTC.
Position N 39°00' W 009°57'.

Length 100 m; beam 17 m.

Type: Tanker. MMSI: 244627000.

Date/timePositionNaut miles runAvg speedWind from/ knotsBaromVisibWave heightAir tempDewpointWater temp
2015-Mar-02 10:15N 39°00' W 009°57'1212.1
2015-Mar-02 09:13N 38°48' W 009°57'811.9
2015-Mar-02 08:34N 38°40' W 009°56'1411.8
2015-Mar-02 07:24N 38°27' W 009°52'1011.8
2015-Mar-02 06:34N 38°17' W 009°49'1312.0
2015-Mar-02 05:31N 38°05' W 009°45'1511.8
2015-Mar-02 04:17N 37°51' W 009°41'811.6
2015-Mar-02 03:33N 37°42' W 009°38'2511.8
2015-Mar-02 01:24N 37°18' W 009°31'2211.6
2015-Mar-01 23:31N 36°56' W 009°25'1511.4
2015-Mar-01 22:15N 36°44' W 009°15'19011.8
2015-Mar-01 06:11N 36°00' W 005°26'6 9.1
2015-Mar-01 05:33N 36°02' W 005°19'21711.4
2015-Feb-28 10:33N 37°13' W 001°04'1212.3
2015-Feb-28 09:33N 37°21' W 000°52'1312.7
2015-Feb-28 08:33N 37°30' W 000°40'1312.8
2015-Feb-28 07:33N 37°39' W 000°30'1312.7
2015-Feb-28 06:34N 37°49' W 000°21'1313.0
2015-Feb-28 05:33N 38°00' W 000°12'13212.9
2015-Feb-27 19:22N 40°00' E 000°58'1113.7
2015-Feb-27 18:33N 40°11' E 001°01'1313.5
2015-Feb-27 17:33N 40°24' E 001°04'42 2.3
2015-Feb-26 23:33N 41°06' E 001°14'0 0.0
2015-Feb-26 22:23N 41°06' E 001°14'10 1.3
2015-Feb-26 15:10N 40°59' E 001°22'912.8
2015-Feb-26 14:29N 40°54' E 001°32'1213.5
2015-Feb-26 13:33N 40°47' E 001°45'1313.3
2015-Feb-26 12:33N 40°39' E 001°60'1313.4
2015-Feb-26 11:33N 40°31' E 002°14'1413.7
2015-Feb-26 10:33N 40°24' E 002°30'1313.2
2015-Feb-26 09:33N 40°17' E 002°44'1312.9
2015-Feb-26 08:33N 40°09' E 002°58'1312.5
2015-Feb-26 07:31N 40°02' E 003°12'10 8.3
2015-Feb-26 06:20N 39°52' E 003°16'6 7.8
2015-Feb-26 05:32N 39°50' E 003°08'0 0.0
2015-Feb-25 07:20N 39°50' E 003°08'1 1.5
2015-Feb-25 06:28N 39°49' E 003°10'0 0.3
2015-Feb-25 05:28N 39°49' E 003°10'0 0.0
2015-Feb-25 04:28N 39°49' E 003°10'0 0.0
2015-Feb-25 03:25N 39°49' E 003°10'0 0.4
2015-Feb-25 02:33N 39°49' E 003°11'11 8.3
2015-Feb-25 01:11N 40°01' E 003°12'812.2
2015-Feb-25 00:29N 40°01' E 003°01'1112.1
2015-Feb-24 23:33N 39°58' E 002°47'1211.9
2015-Feb-24 22:33N 39°55' E 002°32'1111.5
2015-Feb-24 21:33N 39°48' E 002°20'1211.7
2015-Feb-24 20:33N 39°41' E 002°08'1211.6
2015-Feb-24 19:33N 39°34' E 001°56'1212.1
2015-Feb-24 18:33N 39°26' E 001°44'1212.2
2015-Feb-24 17:33N 39°19' E 001°31'1212.3
2015-Feb-24 16:33N 39°12' E 001°19'12212.1
2015-Feb-24 06:26N 37°40' W 000°25'1112.1
2015-Feb-24 05:33N 37°31' W 000°33'1212.2
2015-Feb-24 04:33N 37°31' W 000°49'7 0.4
2015-Feb-23 10:13N 37°34' W 000°57'5 5.7
2015-Feb-23 09:15N 37°33' W 001°04'1 0.1
2015-Feb-23 03:10N 37°33' W 001°05'0 0.0
2015-Feb-23 01:16N 37°33' W 001°05'0 0.0
2015-Feb-23 00:22N 37°33' W 001°05'0 0.0
2015-Feb-22 23:28N 37°33' W 001°05'0 0.1
2015-Feb-22 22:33N 37°33' W 001°06'2 1.4
2015-Feb-22 21:28N 37°32' W 001°05'1111.4
2015-Feb-22 20:31N 37°21' W 001°04'2 1.7
2015-Feb-22 19:32N 37°19' W 001°05'  
Track history (hours):
 
Tides and Currents Weather Stations Pressure Air Temp Water Temp Dewpoint Dewpoint Depression Visibility Wind Speed Wind Dir Waves Ship Positions

Coral Favia

Last reported at 2015-Mar-02 10:15 UTC. Time now 2015-Mar-06 16:04 UTC.
Position N 39°00' W 009°57'.

Length 100 m; beam 17 m.

Type: Tanker. MMSI: 244627000.

Date/timePositionNaut miles runAvg speedWind from/ knotsBaromVisibWave heightAir tempDewpointWater temp
2015-Mar-02 10:15N 39°00' W 009°57'1212.1
2015-Mar-02 09:13N 38°48' W 009°57'811.9
2015-Mar-02 08:34N 38°40' W 009°56'1411.8
2015-Mar-02 07:24N 38°27' W 009°52'1011.8
2015-Mar-02 06:34N 38°17' W 009°49'1312.0
2015-Mar-02 05:31N 38°05' W 009°45'1511.8
2015-Mar-02 04:17N 37°51' W 009°41'811.6
2015-Mar-02 03:33N 37°42' W 009°38'2511.8
2015-Mar-02 01:24N 37°18' W 009°31'2211.6
2015-Mar-01 23:31N 36°56' W 009°25'1511.4
2015-Mar-01 22:15N 36°44' W 009°15'19011.8
2015-Mar-01 06:11N 36°00' W 005°26'6 9.1
2015-Mar-01 05:33N 36°02' W 005°19'21711.4
2015-Feb-28 10:33N 37°13' W 001°04'1212.3
2015-Feb-28 09:33N 37°21' W 000°52'1312.7
2015-Feb-28 08:33N 37°30' W 000°40'1312.8
2015-Feb-28 07:33N 37°39' W 000°30'1312.7
2015-Feb-28 06:34N 37°49' W 000°21'1313.0
2015-Feb-28 05:33N 38°00' W 000°12'13212.9
2015-Feb-27 19:22N 40°00' E 000°58'1113.7
2015-Feb-27 18:33N 40°11' E 001°01'1313.5
2015-Feb-27 17:33N 40°24' E 001°04'42 2.3
2015-Feb-26 23:33N 41°06' E 001°14'0 0.0
2015-Feb-26 22:23N 41°06' E 001°14'10 1.3
2015-Feb-26 15:10N 40°59' E 001°22'912.8
2015-Feb-26 14:29N 40°54' E 001°32'1213.5
2015-Feb-26 13:33N 40°47' E 001°45'1313.3
2015-Feb-26 12:33N 40°39' E 001°60'1313.4
2015-Feb-26 11:33N 40°31' E 002°14'1413.7
2015-Feb-26 10:33N 40°24' E 002°30'1313.2
2015-Feb-26 09:33N 40°17' E 002°44'1312.9
2015-Feb-26 08:33N 40°09' E 002°58'1312.5
2015-Feb-26 07:31N 40°02' E 003°12'10 8.3
2015-Feb-26 06:20N 39°52' E 003°16'6 7.8
2015-Feb-26 05:32N 39°50' E 003°08'0 0.0
2015-Feb-25 07:20N 39°50' E 003°08'1 1.5
2015-Feb-25 06:28N 39°49' E 003°10'0 0.3
2015-Feb-25 05:28N 39°49' E 003°10'0 0.0
2015-Feb-25 04:28N 39°49' E 003°10'0 0.0
2015-Feb-25 03:25N 39°49' E 003°10'0 0.4
2015-Feb-25 02:33N 39°49' E 003°11'11 8.3
2015-Feb-25 01:11N 40°01' E 003°12'812.2
2015-Feb-25 00:29N 40°01' E 003°01'1112.1
2015-Feb-24 23:33N 39°58' E 002°47'1211.9
2015-Feb-24 22:33N 39°55' E 002°32'1111.5
2015-Feb-24 21:33N 39°48' E 002°20'1211.7
2015-Feb-24 20:33N 39°41' E 002°08'1211.6
2015-Feb-24 19:33N 39°34' E 001°56'1212.1
2015-Feb-24 18:33N 39°26' E 001°44'1212.2
2015-Feb-24 17:33N 39°19' E 001°31'1212.3
2015-Feb-24 16:33N 39°12' E 001°19'12212.1
2015-Feb-24 06:26N 37°40' W 000°25'1112.1
2015-Feb-24 05:33N 37°31' W 000°33'1212.2
2015-Feb-24 04:33N 37°31' W 000°49'7 0.4
2015-Feb-23 10:13N 37°34' W 000°57'5 5.7
2015-Feb-23 09:15N 37°33' W 001°04'1 0.1
2015-Feb-23 03:10N 37°33' W 001°05'0 0.0
2015-Feb-23 01:16N 37°33' W 001°05'0 0.0
2015-Feb-23 00:22N 37°33' W 001°05'0 0.0
2015-Feb-22 23:28N 37°33' W 001°05'0 0.1
2015-Feb-22 22:33N 37°33' W 001°06'2 1.4
2015-Feb-22 21:28N 37°32' W 001°05'1111.4
2015-Feb-22 20:31N 37°21' W 001°04'2 1.7
2015-Feb-22 19:32N 37°19' W 001°05'  

Dump ship's entire track history